sensor_id;sensor_type;location;lat;lon;timestamp;pressure;altitude;pressure_sealevel;temperature;humidity
3428;BME280;1727;42.624;23.406;2023-04-25T00:01:07;94151.28;;;12.79;100.00
3428;BME280;1727;42.624;23.406;2023-04-25T00:03:34;94136.94;;;12.65;100.00
3428;BME280;1727;42.624;23.406;2023-04-25T00:06:01;94145.19;;;12.20;100.00
3428;BME280;1727;42.624;23.406;2023-04-25T00:08:30;94143.31;;;12.04;100.00
3428;BME280;1727;42.624;23.406;2023-04-25T00:10:57;94139.63;;;11.89;100.00
3428;BME280;1727;42.624;23.406;2023-04-25T00:13:24;94127.69;;;11.76;100.00
3428;BME280;1727;42.624;23.406;2023-04-25T00:15:50;94118.34;;;11.56;100.00
3428;BME280;1727;42.624;23.406;2023-04-25T00:18:18;94107.56;;;11.59;100.00
3428;BME280;1727;42.624;23.406;2023-04-25T00:20:45;94104.31;;;11.65;100.00
3428;BME280;1727;42.624;23.406;2023-04-25T00:23:12;94113.34;;;11.89;100.00
3428;BME280;1727;42.624;23.406;2023-04-25T00:25:44;94102.06;;;12.04;100.00
3428;BME280;1727;42.624;23.406;2023-04-25T00:28:11;94112.31;;;12.24;100.00
3428;BME280;1727;42.624;23.406;2023-04-25T00:30:37;94094.44;;;12.35;100.00
3428;BME280;1727;42.624;23.406;2023-04-25T00:33:04;94081.59;;;12.24;100.00
3428;BME280;1727;42.624;23.406;2023-04-25T00:35:31;94081.59;;;12.24;100.00
3428;BME280;1727;42.624;23.406;2023-04-25T00:37:58;94082.44;;;12.41;100.00
3428;BME280;1727;42.624;23.406;2023-04-25T00:40:25;94074.25;;;12.52;100.00
3428;BME280;1727;42.624;23.406;2023-04-25T00:42:54;94069.50;;;12.64;100.00
3428;BME280;1727;42.624;23.406;2023-04-25T00:45:20;94062.59;;;12.71;100.00
3428;BME280;1727;42.624;23.406;2023-04-25T00:47:47;94060.81;;;12.80;100.00
3428;BME280;1727;42.624;23.406;2023-04-25T00:50:14;94056.84;;;12.84;100.00
3428;BME280;1727;42.624;23.406;2023-04-25T00:52:43;94054.53;;;12.89;100.00
3428;BME280;1727;42.624;23.406;2023-04-25T00:55:11;94051.75;;;12.90;100.00
3428;BME280;1727;42.624;23.406;2023-04-25T00:57:39;94044.97;;;12.96;100.00
3428;BME280;1727;42.624;23.406;2023-04-25T01:00:09;94048.78;;;13.01;100.00
3428;BME280;1727;42.624;23.406;2023-04-25T01:02:37;94049.59;;;12.94;100.00
3428;BME280;1727;42.624;23.406;2023-04-25T01:05:04;94049.44;;;12.95;100.00
3428;BME280;1727;42.624;23.406;2023-04-25T01:07:31;94046.63;;;12.97;100.00
3428;BME280;1727;42.624;23.406;2023-04-25T01:09:58;94027.22;;;12.90;100.00
3428;BME280;1727;42.624;23.406;2023-04-25T01:12:25;94029.38;;;12.86;100.00
3428;BME280;1727;42.624;23.406;2023-04-25T01:14:52;94032.00;;;12.78;100.00
3428;BME280;1727;42.624;23.406;2023-04-25T01:17:20;94020.16;;;12.58;100.00
3428;BME280;1727;42.624;23.406;2023-04-25T01:19:47;94023.09;;;12.63;100.00
3428;BME280;1727;42.624;23.406;2023-04-25T01:22:15;94026.06;;;12.68;100.00
3428;BME280;1727;42.624;23.406;2023-04-25T01:24:43;94020.78;;;12.68;100.00
3428;BME280;1727;42.624;23.406;2023-04-25T01:27:10;94022.09;;;12.72;100.00
3428;BME280;1727;42.624;23.406;2023-04-25T01:29:37;94022.63;;;12.76;100.00
3428;BME280;1727;42.624;23.406;2023-04-25T01:32:04;94020.47;;;12.71;100.00
3428;BME280;1727;42.624;23.406;2023-04-25T01:34:32;94012.56;;;12.55;100.00
3428;BME280;1727;42.624;23.406;2023-04-25T01:36:59;94024.41;;;12.59;100.00
3428;BME280;1727;42.624;23.406;2023-04-25T01:39:28;94017.84;;;12.63;100.00
3428;BME280;1727;42.624;23.406;2023-04-25T01:41:55;94021.78;;;12.67;100.00
3428;BME280;1727;42.624;23.406;2023-04-25T01:44:22;94015.69;;;12.58;100.00
3428;BME280;1727;42.624;23.406;2023-04-25T01:46:49;94017.19;;;12.45;100.00
3428;BME280;1727;42.624;23.406;2023-04-25T01:49:16;94008.28;;;12.37;100.00
3428;BME280;1727;42.624;23.406;2023-04-25T01:51:43;94014.19;;;12.31;100.00
3428;BME280;1727;42.624;23.406;2023-04-25T01:54:10;94026.34;;;12.32;100.00
3428;BME280;1727;42.624;23.406;2023-04-25T01:56:39;94027.19;;;12.33;100.00
3428;BME280;1727;42.624;23.406;2023-04-25T01:59:06;94030.13;;;12.38;100.00
3428;BME280;1727;42.624;23.406;2023-04-25T02:01:32;94029.81;;;12.41;100.00
3428;BME280;1727;42.624;23.406;2023-04-25T02:03:59;94029.31;;;12.37;100.00
3428;BME280;1727;42.624;23.406;2023-04-25T02:06:26;94023.72;;;12.40;100.00
3428;BME280;1727;42.624;23.406;2023-04-25T02:08:53;94026.03;;;12.35;100.00
3428;BME280;1727;42.624;23.406;2023-04-25T02:11:19;94036.44;;;12.45;100.00
3428;BME280;1727;42.624;23.406;2023-04-25T02:13:48;94034.78;;;12.44;100.00
3428;BME280;1727;42.624;23.406;2023-04-25T02:16:14;94028.50;;;12.37;100.00
3428;BME280;1727;42.624;23.406;2023-04-25T02:18:41;94010.06;;;12.21;100.00
3428;BME280;1727;42.624;23.406;2023-04-25T02:21:08;94014.03;;;12.33;100.00
3428;BME280;1727;42.624;23.406;2023-04-25T02:23:35;94003.50;;;12.41;100.00
3428;BME280;1727;42.624;23.406;2023-04-25T02:26:01;94003.66;;;12.39;100.00
3428;BME280;1727;42.624;23.406;2023-04-25T02:28:28;94008.47;;;12.44;100.00
3428;BME280;1727;42.624;23.406;2023-04-25T02:30:57;94010.94;;;12.46;100.00
3428;BME280;1727;42.624;23.406;2023-04-25T02:33:23;93999.25;;;12.48;100.00
3428;BME280;1727;42.624;23.406;2023-04-25T02:35:50;93994.66;;;12.50;100.00
3428;BME280;1727;42.624;23.406;2023-04-25T02:38:17;93981.97;;;12.21;100.00
3428;BME280;1727;42.624;23.406;2023-04-25T02:40:44;93994.13;;;12.22;100.00
3428;BME280;1727;42.624;23.406;2023-04-25T02:43:11;93997.09;;;12.27;100.00
3428;BME280;1727;42.624;23.406;2023-04-25T02:45:37;93988.53;;;12.33;100.00
3428;BME280;1727;42.624;23.406;2023-04-25T02:48:06;93990.03;;;12.36;100.00
3428;BME280;1727;42.624;23.406;2023-04-25T02:50:33;93989.38;;;12.42;100.00
3428;BME280;1727;42.624;23.406;2023-04-25T02:52:59;93996.13;;;12.45;100.00
3428;BME280;1727;42.624;23.406;2023-04-25T02:55:26;93995.94;;;12.38;100.00
3428;BME280;1727;42.624;23.406;2023-04-25T02:57:53;93985.25;;;12.39;100.00
3428;BME280;1727;42.624;23.406;2023-04-25T03:00:21;93985.75;;;12.43;100.00
3428;BME280;1727;42.624;23.406;2023-04-25T03:02:48;93979.66;;;12.43;100.00
3428;BME280;1727;42.624;23.406;2023-04-25T03:05:17;93977.72;;;12.45;100.00
3428;BME280;1727;42.624;23.406;2023-04-25T03:07:45;93984.63;;;12.46;100.00
3428;BME280;1727;42.624;23.406;2023-04-25T03:10:11;93984.47;;;12.47;100.00
3428;BME280;1727;42.624;23.406;2023-04-25T03:12:38;93979.03;;;12.49;100.00
3428;BME280;1727;42.624;23.406;2023-04-25T03:15:06;93978.38;;;12.47;100.00
3428;BME280;1727;42.624;23.406;2023-04-25T03:17:33;93976.91;;;12.44;100.00
3428;BME280;1727;42.624;23.406;2023-04-25T03:19:59;93979.53;;;12.44;100.00
3428;BME280;1727;42.624;23.406;2023-04-25T03:22:28;93979.66;;;12.43;100.00
3428;BME280;1727;42.624;23.406;2023-04-25T03:24:55;93970.28;;;12.40;100.00
3428;BME280;1727;42.624;23.406;2023-04-25T03:27:21;93980.97;;;12.38;100.00
3428;BME280;1727;42.624;23.406;2023-04-25T03:29:48;93967.81;;;12.38;100.00
3428;BME280;1727;42.624;23.406;2023-04-25T03:32:15;93979.00;;;12.40;100.00
3428;BME280;1727;42.624;23.406;2023-04-25T03:34:42;93970.44;;;12.30;100.00
3428;BME280;1727;42.624;23.406;2023-04-25T03:37:09;93979.34;;;12.29;100.00
3428;BME280;1727;42.624;23.406;2023-04-25T03:39:37;93980.31;;;12.20;100.00
3428;BME280;1727;42.624;23.406;2023-04-25T03:42:04;93980.47;;;12.19;100.00
3428;BME280;1727;42.624;23.406;2023-04-25T03:44:31;93968.97;;;12.20;100.00
3428;BME280;1727;42.624;23.406;2023-04-25T03:46:57;93974.72;;;12.23;100.00
3428;BME280;1727;42.624;23.406;2023-04-25T03:49:24;93978.84;;;12.26;100.00
3428;BME280;1727;42.624;23.406;2023-04-25T03:51:51;93975.72;;;12.30;100.00
3428;BME280;1727;42.624;23.406;2023-04-25T03:54:18;93977.03;;;12.34;100.00
3428;BME280;1727;42.624;23.406;2023-04-25T03:56:47;93969.47;;;12.39;100.00
3428;BME280;1727;42.624;23.406;2023-04-25T03:59:14;93975.56;;;12.48;100.00
3428;BME280;1727;42.624;23.406;2023-04-25T04:01:40;93974.59;;;12.57;100.00
3428;BME280;1727;42.624;23.406;2023-04-25T04:04:07;93979.84;;;12.82;100.00
3428;BME280;1727;42.624;23.406;2023-04-25T04:06:34;93974.22;;;13.01;100.00
3428;BME280;1727;42.624;23.406;2023-04-25T04:09:01;93972.88;;;13.13;100.00
3428;BME280;1727;42.624;23.406;2023-04-25T04:11:28;93970.72;;;13.25;100.00
3428;BME280;1727;42.624;23.406;2023-04-25T04:13:58;93984.31;;;13.61;100.00
3428;BME280;1727;42.624;23.406;2023-04-25T04:16:24;93976.19;;;13.71;100.00
3428;BME280;1727;42.624;23.406;2023-04-25T04:18:51;93970.97;;;13.54;100.00
3428;BME280;1727;42.624;23.406;2023-04-25T04:21:18;93973.97;;;13.43;100.00
3428;BME280;1727;42.624;23.406;2023-04-25T04:23:45;93987.00;;;13.45;100.00
3428;BME280;1727;42.624;23.406;2023-04-25T04:26:11;93987.50;;;13.40;100.00
3428;BME280;1727;42.624;23.406;2023-04-25T04:28:40;93986.53;;;13.25;100.00
3428;BME280;1727;42.624;23.406;2023-04-25T04:31:08;93987.06;;;12.96;100.00
3428;BME280;1727;42.624;23.406;2023-04-25T04:33:36;93983.97;;;12.76;100.00
3428;BME280;1727;42.624;23.406;2023-04-25T04:36:03;93983.13;;;12.35;100.00
3428;BME280;1727;42.624;23.406;2023-04-25T04:38:33;93983.56;;;12.06;100.00
3428;BME280;1727;42.624;23.406;2023-04-25T04:40:59;93990.84;;;12.20;100.00
3428;BME280;1727;42.624;23.406;2023-04-25T04:43:26;93981.63;;;12.24;100.00
3428;BME280;1727;42.624;23.406;2023-04-25T04:45:53;93970.78;;;12.27;100.00
3428;BME280;1727;42.624;23.406;2023-04-25T04:48:22;93980.00;;;12.31;100.00
3428;BME280;1727;42.624;23.406;2023-04-25T04:50:50;93981.63;;;12.40;100.00
3428;BME280;1727;42.624;23.406;2023-04-25T04:53:16;93987.56;;;12.43;100.00
3428;BME280;1727;42.624;23.406;2023-04-25T04:55:43;93988.91;;;12.47;100.00
3428;BME280;1727;42.624;23.406;2023-04-25T04:58:11;93988.25;;;12.53;100.00
3428;BME280;1727;42.624;23.406;2023-04-25T05:00:38;93976.72;;;12.46;100.00
3428;BME280;1727;42.624;23.406;2023-04-25T05:03:05;93982.28;;;12.43;100.00
3428;BME280;1727;42.624;23.406;2023-04-25T05:05:33;93988.53;;;12.25;100.00
3428;BME280;1727;42.624;23.406;2023-04-25T05:08:00;94005.16;;;12.34;100.00
3428;BME280;1727;42.624;23.406;2023-04-25T05:10:27;93986.41;;;12.21;100.00
3428;BME280;1727;42.624;23.406;2023-04-25T05:12:53;93993.16;;;12.31;100.00
3428;BME280;1727;42.624;23.406;2023-04-25T05:15:20;94005.16;;;12.34;100.00
3428;BME280;1727;42.624;23.406;2023-04-25T05:17:47;94004.69;;;12.47;100.00
3428;BME280;1727;42.624;23.406;2023-04-25T05:20:14;93989.53;;;12.32;100.00
3428;BME280;1727;42.624;23.406;2023-04-25T05:22:42;94002.84;;;12.31;100.00
3428;BME280;1727;42.624;23.406;2023-04-25T05:25:09;94009.91;;;12.38;100.00
3428;BME280;1727;42.624;23.406;2023-04-25T05:27:36;94009.91;;;12.30;100.00
3428;BME280;1727;42.624;23.406;2023-04-25T05:30:03;94006.28;;;12.23;100.00
3428;BME280;1727;42.624;23.406;2023-04-25T05:32:31;94010.06;;;12.21;100.00
3428;BME280;1727;42.624;23.406;2023-04-25T05:34:58;94011.69;;;12.14;100.00
3428;BME280;1727;42.624;23.406;2023-04-25T05:37:24;94014.34;;;12.22;100.00
3428;BME280;1727;42.624;23.406;2023-04-25T05:39:53;94019.59;;;12.22;100.00
3428;BME280;1727;42.624;23.406;2023-04-25T05:42:22;94002.84;;;12.15;100.00
3428;BME280;1727;42.624;23.406;2023-04-25T05:44:49;94011.03;;;11.69;100.00
3428;BME280;1727;42.624;23.406;2023-04-25T05:47:16;94018.69;;;11.89;100.00
3428;BME280;1727;42.624;23.406;2023-04-25T05:49:42;94021.03;;;12.08;100.00
3428;BME280;1727;42.624;23.406;2023-04-25T05:52:09;94023.72;;;12.24;100.00
3428;BME280;1727;42.624;23.406;2023-04-25T05:54:36;94012.47;;;11.98;100.00
3428;BME280;1727;42.624;23.406;2023-04-25T05:57:04;94017.75;;;12.14;100.00
3428;BME280;1727;42.624;23.406;2023-04-25T05:59:31;94018.63;;;12.31;100.00
3428;BME280;1727;42.624;23.406;2023-04-25T06:01:58;94020.81;;;12.44;100.00
3428;BME280;1727;42.624;23.406;2023-04-25T06:04:26;94020.47;;;12.47;100.00
3428;BME280;1727;42.624;23.406;2023-04-25T06:06:52;94030.66;;;12.66;100.00
3428;BME280;1727;42.624;23.406;2023-04-25T06:09:19;94023.78;;;12.73;100.00
3428;BME280;1727;42.624;23.406;2023-04-25T06:11:46;94021.97;;;12.82;100.00
3428;BME280;1727;42.624;23.406;2023-04-25T06:14:14;94014.56;;;12.77;100.00
3428;BME280;1727;42.624;23.406;2023-04-25T06:16:41;94014.38;;;12.95;100.00
3428;BME280;1727;42.624;23.406;2023-04-25T06:19:08;94016.84;;;13.05;100.00
3428;BME280;1727;42.624;23.406;2023-04-25T06:21:35;94013.56;;;13.19;100.00
3428;BME280;1727;42.624;23.406;2023-04-25T06:24:04;94016.81;;;13.29;100.00
3428;BME280;1727;42.624;23.406;2023-04-25T06:26:31;94012.22;;;13.39;100.00
3428;BME280;1727;42.624;23.406;2023-04-25T06:28:57;94025.31;;;13.55;100.00
3428;BME280;1727;42.624;23.406;2023-04-25T06:31:26;94024.03;;;13.59;100.00
3428;BME280;1727;42.624;23.406;2023-04-25T06:33:54;94025.81;;;13.67;100.00
3428;BME280;1727;42.624;23.406;2023-04-25T06:36:21;94013.22;;;13.77;100.00
3428;BME280;1727;42.624;23.406;2023-04-25T06:38:50;94025.28;;;14.11;100.00
3428;BME280;1727;42.624;23.406;2023-04-25T06:41:17;94021.69;;;14.35;100.00
3428;BME280;1727;42.624;23.406;2023-04-25T06:43:44;94022.09;;;14.54;100.00
3428;BME280;1727;42.624;23.406;2023-04-25T06:46:10;94030.78;;;14.63;98.51
3428;BME280;1727;42.624;23.406;2023-04-25T06:48:39;94027.31;;;14.85;96.84
3428;BME280;1727;42.624;23.406;2023-04-25T06:51:05;94031.97;;;14.83;94.44
3428;BME280;1727;42.624;23.406;2023-04-25T06:53:32;94040.44;;;14.94;94.37
3428;BME280;1727;42.624;23.406;2023-04-25T06:55:59;94043.69;;;15.04;95.32
3428;BME280;1727;42.624;23.406;2023-04-25T06:58:26;94039.63;;;15.16;94.61
3428;BME280;1727;42.624;23.406;2023-04-25T07:00:52;94037.56;;;15.56;93.46
3428;BME280;1727;42.624;23.406;2023-04-25T07:03:19;94037.69;;;16.06;92.55
3428;BME280;1727;42.624;23.406;2023-04-25T07:05:48;94038.53;;;16.43;90.22
3428;BME280;1727;42.624;23.406;2023-04-25T07:08:14;94033.69;;;16.47;86.96
3428;BME280;1727;42.624;23.406;2023-04-25T07:10:41;94040.66;;;16.33;86.52
3428;BME280;1727;42.624;23.406;2023-04-25T07:13:08;94040.47;;;16.34;88.36
3428;BME280;1727;42.624;23.406;2023-04-25T07:15:35;94035.50;;;16.10;88.58
3428;BME280;1727;42.624;23.406;2023-04-25T07:18:02;94035.78;;;15.86;88.22
3428;BME280;1727;42.624;23.406;2023-04-25T07:20:29;94026.66;;;15.59;89.29
3428;BME280;1727;42.624;23.406;2023-04-25T07:22:57;94028.59;;;15.65;89.87
3428;BME280;1727;42.624;23.406;2023-04-25T07:25:24;94036.06;;;14.86;93.11
3428;BME280;1727;42.624;23.406;2023-04-25T07:27:51;94016.13;;;14.98;92.87
3428;BME280;1727;42.624;23.406;2023-04-25T07:30:18;94024.19;;;15.05;94.14
3428;BME280;1727;42.624;23.406;2023-04-25T07:32:44;94029.13;;;15.08;95.12
3428;BME280;1727;42.624;23.406;2023-04-25T07:35:11;94016.56;;;15.10;94.45
3428;BME280;1727;42.624;23.406;2023-04-25T07:37:38;94023.13;;;15.14;93.83
3428;BME280;1727;42.624;23.406;2023-04-25T07:40:07;94023.13;;;15.14;93.56
3428;BME280;1727;42.624;23.406;2023-04-25T07:42:35;94013.41;;;14.92;95.34
3428;BME280;1727;42.624;23.406;2023-04-25T07:45:02;94023.31;;;14.67;93.96
3428;BME280;1727;42.624;23.406;2023-04-25T07:47:29;94020.94;;;14.80;94.67
3428;BME280;1727;42.624;23.406;2023-04-25T07:49:56;94011.53;;;14.77;94.68
3428;BME280;1727;42.624;23.406;2023-04-25T07:52:23;94013.75;;;14.66;96.29
3428;BME280;1727;42.624;23.406;2023-04-25T07:54:50;94011.88;;;14.74;96.22
3428;BME280;1727;42.624;23.406;2023-04-25T07:57:18;93996.53;;;14.55;95.35
3428;BME280;1727;42.624;23.406;2023-04-25T07:59:45;93999.72;;;14.88;96.33
3428;BME280;1727;42.624;23.406;2023-04-25T08:02:12;94009.53;;;15.17;94.94
3428;BME280;1727;42.624;23.406;2023-04-25T08:04:39;94005.38;;;15.37;94.40
3428;BME280;1727;42.624;23.406;2023-04-25T08:07:05;94004.34;;;15.61;95.14
3428;BME280;1727;42.624;23.406;2023-04-25T08:09:32;94008.97;;;15.89;94.38
3428;BME280;1727;42.624;23.406;2023-04-25T08:12:00;94009.16;;;16.02;86.81
3428;BME280;1727;42.624;23.406;2023-04-25T08:14:30;94012.31;;;16.12;88.15
3428;BME280;1727;42.624;23.406;2023-04-25T08:17:01;94005.56;;;16.24;88.16
3428;BME280;1727;42.624;23.406;2023-04-25T08:19:28;94011.97;;;16.51;89.96
3428;BME280;1727;42.624;23.406;2023-04-25T08:21:57;94015.78;;;16.85;88.59
3428;BME280;1727;42.624;23.406;2023-04-25T08:24:24;94010.84;;;17.03;84.84
3428;BME280;1727;42.624;23.406;2023-04-25T08:26:51;94020.41;;;17.25;83.76
3428;BME280;1727;42.624;23.406;2023-04-25T08:29:19;94016.47;;;16.93;81.96
3428;BME280;1727;42.624;23.406;2023-04-25T08:31:47;93994.06;;;16.96;82.73
3428;BME280;1727;42.624;23.406;2023-04-25T08:34:14;93995.72;;;17.25;82.35
3428;BME280;1727;42.624;23.406;2023-04-25T08:36:41;93995.75;;;17.59;82.16
3428;BME280;1727;42.624;23.406;2023-04-25T08:39:07;93995.81;;;18.01;81.59
3428;BME280;1727;42.624;23.406;2023-04-25T08:41:36;94002.41;;;18.18;76.82
3428;BME280;1727;42.624;23.406;2023-04-25T08:44:03;94000.03;;;18.23;75.35
3428;BME280;1727;42.624;23.406;2023-04-25T08:46:31;93991.75;;;18.52;74.59
3428;BME280;1727;42.624;23.406;2023-04-25T08:49:01;94000.19;;;18.76;72.36
3428;BME280;1727;42.624;23.406;2023-04-25T08:51:31;93999.41;;;19.02;71.55
3428;BME280;1727;42.624;23.406;2023-04-25T08:54:08;93991.03;;;19.25;72.89
3428;BME280;1727;42.624;23.406;2023-04-25T08:56:35;94001.88;;;19.16;69.25
3428;BME280;1727;42.624;23.406;2023-04-25T08:59:02;93998.53;;;18.68;68.63
3428;BME280;1727;42.624;23.406;2023-04-25T09:01:29;93992.19;;;18.63;69.68
3428;BME280;1727;42.624;23.406;2023-04-25T09:03:57;93999.78;;;18.18;72.73
3428;BME280;1727;42.624;23.406;2023-04-25T09:06:25;93995.28;;;18.18;74.44
3428;BME280;1727;42.624;23.406;2023-04-25T09:08:53;93992.19;;;18.08;71.93
3428;BME280;1727;42.624;23.406;2023-04-25T09:11:19;93984.41;;;18.07;71.44
3428;BME280;1727;42.624;23.406;2023-04-25T09:13:46;93983.16;;;17.96;72.24
3428;BME280;1727;42.624;23.406;2023-04-25T09:16:13;93979.19;;;17.85;74.03
3428;BME280;1727;42.624;23.406;2023-04-25T09:18:42;93982.56;;;17.66;77.35
3428;BME280;1727;42.624;23.406;2023-04-25T09:21:10;93984.66;;;17.71;80.13
3428;BME280;1727;42.624;23.406;2023-04-25T09:23:44;93981.66;;;17.87;78.23
3428;BME280;1727;42.624;23.406;2023-04-25T09:26:13;93975.47;;;17.73;80.57
3428;BME280;1727;42.624;23.406;2023-04-25T09:28:40;93969.41;;;17.86;76.14
3428;BME280;1727;42.624;23.406;2023-04-25T09:31:09;93973.78;;;18.07;74.56
3428;BME280;1727;42.624;23.406;2023-04-25T09:33:37;93959.09;;;18.11;72.86
3428;BME280;1727;42.624;23.406;2023-04-25T09:36:07;93962.25;;;17.86;69.83
3428;BME280;1727;42.624;23.406;2023-04-25T09:38:41;93964.31;;;18.45;82.20
3428;BME280;1727;42.624;23.406;2023-04-25T09:41:09;93974.22;;;18.71;72.78
3428;BME280;1727;42.624;23.406;2023-04-25T09:43:38;93972.22;;;19.19;74.60
3428;BME280;1727;42.624;23.406;2023-04-25T09:46:08;93969.13;;;19.49;73.04
3428;BME280;1727;42.624;23.406;2023-04-25T09:48:36;93968.91;;;19.70;74.22
3428;BME280;1727;42.624;23.406;2023-04-25T09:51:07;93983.66;;;19.73;70.69
3428;BME280;1727;42.624;23.406;2023-04-25T09:53:36;93975.03;;;19.64;73.28
3428;BME280;1727;42.624;23.406;2023-04-25T09:56:06;93973.03;;;19.66;72.26
3428;BME280;1727;42.624;23.406;2023-04-25T09:58:35;93969.75;;;19.25;73.50
3428;BME280;1727;42.624;23.406;2023-04-25T10:01:03;93977.09;;;18.83;74.86
3428;BME280;1727;42.624;23.406;2023-04-25T10:03:33;93976.75;;;18.32;77.57
3428;BME280;1727;42.624;23.406;2023-04-25T10:06:01;93966.63;;;18.01;79.30
3428;BME280;1727;42.624;23.406;2023-04-25T10:08:32;93955.94;;;17.53;80.49
3428;BME280;1727;42.624;23.406;2023-04-25T10:11:00;93953.81;;;17.35;79.05
3428;BME280;1727;42.624;23.406;2023-04-25T10:13:30;93961.09;;;17.05;80.60
3428;BME280;1727;42.624;23.406;2023-04-25T10:16:04;93961.69;;;17.00;81.20
3428;BME280;1727;42.624;23.406;2023-04-25T10:18:32;93951.91;;;17.01;84.63
3428;BME280;1727;42.624;23.406;2023-04-25T10:21:00;93947.38;;;16.95;79.56
3428;BME280;1727;42.624;23.406;2023-04-25T10:23:29;93941.88;;;16.96;76.44
3428;BME280;1727;42.624;23.406;2023-04-25T10:25:56;93944.25;;;17.13;76.60
3428;BME280;1727;42.624;23.406;2023-04-25T10:28:24;93954.34;;;17.30;74.42
3428;BME280;1727;42.624;23.406;2023-04-25T10:30:59;93967.28;;;17.40;76.20
3428;BME280;1727;42.624;23.406;2023-04-25T10:33:32;93973.53;;;17.32;71.94
3428;BME280;1727;42.624;23.406;2023-04-25T10:36:09;93949.06;;;17.30;66.84
3428;BME280;1727;42.624;23.406;2023-04-25T10:38:37;93952.53;;;17.31;66.04
3428;BME280;1727;42.624;23.406;2023-04-25T10:41:09;93957.13;;;17.44;72.69
3428;BME280;1727;42.624;23.406;2023-04-25T10:43:37;93949.56;;;17.41;76.00
3428;BME280;1727;42.624;23.406;2023-04-25T10:46:19;93941.66;;;17.54;75.78
3428;BME280;1727;42.624;23.406;2023-04-25T10:48:49;93945.50;;;17.45;69.93
3428;BME280;1727;42.624;23.406;2023-04-25T10:51:21;93941.84;;;17.52;69.76
3428;BME280;1727;42.624;23.406;2023-04-25T10:53:57;93944.09;;;17.55;67.90
3428;BME280;1727;42.624;23.406;2023-04-25T10:56:26;93949.84;;;17.59;68.30
3428;BME280;1727;42.624;23.406;2023-04-25T10:59:03;93964.31;;;17.56;65.13
3428;BME280;1727;42.624;23.406;2023-04-25T11:01:36;93957.69;;;16.83;72.95
3428;BME280;1727;42.624;23.406;2023-04-25T11:04:04;93959.59;;;16.32;74.11
3428;BME280;1727;42.624;23.406;2023-04-25T11:06:37;93964.38;;;16.22;76.06
3428;BME280;1727;42.624;23.406;2023-04-25T11:09:11;93966.75;;;16.17;76.59
3428;BME280;1727;42.624;23.406;2023-04-25T11:11:39;93967.44;;;16.04;76.50
3428;BME280;1727;42.624;23.406;2023-04-25T11:14:06;93972.34;;;16.07;76.81
3428;BME280;1727;42.624;23.406;2023-04-25T11:16:34;93966.31;;;16.13;78.36
3428;BME280;1727;42.624;23.406;2023-04-25T11:19:01;93954.16;;;16.19;79.97
3428;BME280;1727;42.624;23.406;2023-04-25T11:21:29;93948.56;;;16.28;83.60
3428;BME280;1727;42.624;23.406;2023-04-25T11:23:57;93954.38;;;16.02;84.99
3428;BME280;1727;42.624;23.406;2023-04-25T11:26:24;93946.88;;;16.21;86.80
3428;BME280;1727;42.624;23.406;2023-04-25T11:28:51;93943.69;;;16.10;85.70
3428;BME280;1727;42.624;23.406;2023-04-25T11:31:20;93942.31;;;16.15;85.82
3428;BME280;1727;42.624;23.406;2023-04-25T11:33:49;93938.66;;;16.16;82.03
3428;BME280;1727;42.624;23.406;2023-04-25T11:36:17;93947.72;;;16.06;83.76
3428;BME280;1727;42.624;23.406;2023-04-25T11:38:44;93940.84;;;15.91;84.73
3428;BME280;1727;42.624;23.406;2023-04-25T11:41:11;93936.44;;;15.98;83.40
3428;BME280;1727;42.624;23.406;2023-04-25T11:43:38;93940.09;;;15.82;79.79
3428;BME280;1727;42.624;23.406;2023-04-25T11:46:07;93943.75;;;15.81;82.11
3428;BME280;1727;42.624;23.406;2023-04-25T11:48:37;93949.16;;;15.73;81.25
3428;BME280;1727;42.624;23.406;2023-04-25T11:51:05;93947.88;;;15.69;83.25
3428;BME280;1727;42.624;23.406;2023-04-25T11:53:32;93949.72;;;15.68;84.46
3428;BME280;1727;42.624;23.406;2023-04-25T11:55:59;93953.19;;;15.69;86.92
3428;BME280;1727;42.624;23.406;2023-04-25T11:58:26;93945.31;;;15.75;87.58
3428;BME280;1727;42.624;23.406;2023-04-25T12:00:53;93949.78;;;15.75;89.99
3428;BME280;1727;42.624;23.406;2023-04-25T12:03:23;93962.63;;;15.78;91.16
3428;BME280;1727;42.624;23.406;2023-04-25T12:05:52;93956.97;;;15.52;92.30
3428;BME280;1727;42.624;23.406;2023-04-25T12:08:23;93969.00;;;15.39;90.30
3428;BME280;1727;42.624;23.406;2023-04-25T12:10:51;93963.69;;;15.10;89.08
3428;BME280;1727;42.624;23.406;2023-04-25T12:13:19;93948.16;;;14.77;89.25
3428;BME280;1727;42.624;23.406;2023-04-25T12:15:46;93943.16;;;14.82;92.04
3428;BME280;1727;42.624;23.406;2023-04-25T12:18:13;93947.06;;;14.86;93.49
3428;BME280;1727;42.624;23.406;2023-04-25T12:20:41;93949.28;;;14.98;94.70
3428;BME280;1727;42.624;23.406;2023-04-25T12:23:08;93931.53;;;15.06;95.18
3428;BME280;1727;42.624;23.406;2023-04-25T12:25:39;93923.88;;;15.11;95.55
3428;BME280;1727;42.624;23.406;2023-04-25T12:28:11;93917.88;;;15.17;93.51
3428;BME280;1727;42.624;23.406;2023-04-25T12:30:58;93914.50;;;15.24;92.45
3428;BME280;1727;42.624;23.406;2023-04-25T12:33:27;93912.03;;;15.37;92.64
3428;BME280;1727;42.624;23.406;2023-04-25T12:35:55;93905.56;;;15.39;93.85
3428;BME280;1727;42.624;23.406;2023-04-25T12:38:23;93902.19;;;15.45;93.69
3428;BME280;1727;42.624;23.406;2023-04-25T12:40:52;93900.38;;;15.46;92.46
3428;BME280;1727;42.624;23.406;2023-04-25T12:43:18;93906.53;;;15.53;92.70
3428;BME280;1727;42.624;23.406;2023-04-25T12:45:47;93912.41;;;15.63;94.17
3428;BME280;1727;42.624;23.406;2023-04-25T12:48:15;93914.13;;;15.71;94.82
3428;BME280;1727;42.624;23.406;2023-04-25T12:50:41;93942.59;;;15.69;92.54
3428;BME280;1727;42.624;23.406;2023-04-25T12:53:08;93957.22;;;15.57;87.57
3428;BME280;1727;42.624;23.406;2023-04-25T12:55:35;93957.72;;;15.60;88.65
3428;BME280;1727;42.624;23.406;2023-04-25T12:58:03;93963.53;;;15.56;84.02
3428;BME280;1727;42.624;23.406;2023-04-25T13:00:30;93966.00;;;15.57;85.13
3428;BME280;1727;42.624;23.406;2023-04-25T13:02:57;93975.47;;;15.52;83.96
3428;BME280;1727;42.624;23.406;2023-04-25T13:05:24;93980.19;;;15.64;87.03
3428;BME280;1727;42.624;23.406;2023-04-25T13:07:51;93985.16;;;15.59;86.03